createdAt,value
2019-06-01T00:01:40.567Z,21.80
2019-06-01T00:04:10.032Z,21.80
2019-06-01T00:06:40.675Z,21.70
2019-06-01T00:09:10.034Z,21.70
2019-06-01T00:11:39.514Z,21.70
2019-06-01T00:14:10.332Z,21.70
2019-06-01T00:16:39.982Z,21.70
2019-06-01T00:19:10.389Z,21.70
2019-06-01T00:21:39.650Z,21.70
2019-06-01T00:24:09.172Z,21.70
2019-06-01T00:26:38.520Z,21.70
2019-06-01T00:29:08.932Z,21.70
2019-06-01T00:31:38.250Z,21.70
2019-06-01T00:34:07.564Z,21.70
2019-06-01T00:36:36.882Z,21.70
2019-06-01T00:39:07.016Z,21.70
2019-06-01T00:41:36.350Z,21.70
2019-06-01T00:44:06.132Z,21.70
2019-06-01T00:46:35.444Z,21.60
2019-06-01T00:49:04.897Z,21.70
2019-06-01T00:51:34.287Z,21.60
2019-06-01T00:54:03.537Z,21.60
2019-06-01T00:56:32.990Z,21.60
2019-06-01T00:59:02.228Z,21.60
2019-06-01T01:01:32.452Z,21.60
2019-06-01T01:04:01.825Z,21.60
2019-06-01T01:06:31.170Z,21.60
2019-06-01T01:09:01.470Z,21.60
2019-06-01T01:11:32.459Z,21.60
2019-06-01T01:14:01.830Z,21.60
2019-06-01T01:16:31.300Z,21.60
2019-06-01T01:19:00.467Z,21.60
2019-06-01T01:21:29.814Z,21.60
2019-06-01T01:23:59.101Z,21.60
2019-06-01T01:26:29.185Z,21.60
2019-06-01T01:28:58.781Z,21.60
2019-06-01T01:31:28.278Z,21.60
2019-06-01T01:33:57.671Z,21.60
2019-06-01T01:36:27.254Z,21.50
2019-06-01T01:38:56.639Z,21.50
2019-06-01T01:41:25.848Z,21.50
2019-06-01T01:43:55.148Z,21.50
2019-06-01T01:46:24.642Z,21.50
2019-06-01T01:48:54.271Z,21.50
2019-06-01T01:51:24.309Z,21.50
2019-06-01T01:53:54.703Z,21.50
2019-06-01T01:56:26.388Z,21.50
2019-06-01T01:58:56.786Z,21.50
2019-06-01T02:01:26.046Z,21.50
2019-06-01T02:03:55.601Z,21.40
2019-06-01T02:06:29.135Z,21.40
2019-06-01T02:08:59.354Z,21.40
2019-06-01T02:11:28.729Z,21.40
2019-06-01T02:13:58.049Z,21.40
2019-06-01T02:16:28.299Z,21.40
2019-06-01T02:19:00.636Z,21.40
2019-06-01T02:21:29.961Z,21.40
2019-06-01T02:23:59.188Z,21.40
2019-06-01T02:26:29.410Z,21.40
2019-06-01T02:28:59.493Z,21.40
2019-06-01T02:31:40.654Z,21.40
2019-06-01T02:34:01.516Z,21.40
2019-06-01T02:36:30.782Z,21.40
2019-06-01T02:39:01.060Z,21.40
2019-06-01T02:41:32.316Z,21.40
2019-06-01T02:44:03.568Z,21.40
2019-06-01T02:46:35.520Z,21.30
2019-06-01T02:49:04.274Z,21.30
2019-06-01T02:51:34.507Z,21.40
2019-06-01T02:54:04.160Z,21.30
2019-06-01T02:56:33.492Z,21.30
2019-06-01T02:59:02.697Z,21.30
2019-06-01T03:01:35.739Z,21.30
2019-06-01T03:04:09.287Z,21.30
2019-06-01T03:06:40.896Z,21.30
2019-06-01T03:09:10.172Z,21.30
2019-06-01T03:11:40.965Z,21.30
2019-06-01T03:14:11.238Z,21.30
2019-06-01T03:16:41.107Z,21.30
2019-06-01T03:19:12.000Z,21.30
2019-06-01T03:21:42.874Z,21.20
2019-06-01T03:24:13.398Z,21.20
2019-06-01T03:26:43.984Z,21.20
2019-06-01T03:29:14.359Z,21.20
2019-06-01T03:31:43.611Z,21.20
2019-06-01T03:34:13.987Z,21.20
2019-06-01T03:36:43.596Z,21.20
2019-06-01T03:39:13.267Z,21.20
2019-06-01T03:41:42.725Z,21.20
2019-06-01T03:44:13.006Z,21.20
2019-06-01T03:46:42.355Z,21.20
2019-06-01T03:49:11.973Z,21.20
2019-06-01T03:51:41.240Z,21.20
2019-06-01T03:54:10.601Z,21.10
2019-06-01T03:56:39.937Z,21.10
2019-06-01T03:59:09.463Z,21.10
2019-06-01T04:01:39.832Z,21.10
2019-06-01T04:04:09.361Z,21.10
2019-06-01T04:06:38.702Z,21.10
2019-06-01T04:09:08.098Z,21.10
2019-06-01T04:11:37.332Z,21.10
2019-06-01T04:14:07.741Z,21.10
2019-06-01T04:16:36.951Z,21.10
2019-06-01T04:19:09.928Z,21.10
2019-06-01T04:21:39.308Z,21.10
2019-06-01T04:24:08.670Z,21.10
2019-06-01T04:26:38.083Z,21.10
2019-06-01T04:29:08.278Z,21.10
2019-06-01T04:31:37.625Z,21.10
2019-06-01T04:34:06.937Z,21.10
2019-06-01T04:36:36.246Z,21.10
2019-06-01T04:39:07.327Z,21.10
2019-06-01T04:41:36.739Z,21.10
2019-06-01T04:44:06.207Z,21.10
2019-06-01T04:46:36.627Z,21.10
2019-06-01T04:49:06.534Z,21.10
2019-06-01T04:51:35.858Z,21.20
2019-06-01T04:54:05.168Z,21.20
2019-06-01T04:56:34.562Z,21.20
2019-06-01T04:59:04.912Z,21.20
2019-06-01T05:01:34.264Z,21.30
2019-06-01T05:04:04.856Z,21.30
2019-06-01T05:06:34.273Z,21.40
2019-06-01T05:09:05.242Z,21.40
2019-06-01T05:11:34.601Z,21.50
2019-06-01T05:14:03.996Z,21.60
2019-06-01T05:16:33.223Z,21.60
2019-06-01T05:19:02.613Z,21.60
2019-06-01T05:21:33.050Z,21.60
2019-06-01T05:24:02.358Z,21.60
2019-06-01T05:26:31.753Z,21.70
2019-06-01T05:29:01.239Z,21.70
2019-06-01T05:31:30.526Z,21.80
2019-06-01T05:33:59.956Z,21.80
2019-06-01T05:36:29.391Z,21.90
2019-06-01T05:38:58.669Z,22.00
2019-06-01T05:41:28.067Z,22.10
2019-06-01T05:43:57.306Z,22.30
2019-06-01T05:46:26.538Z,22.40
2019-06-01T05:48:55.769Z,22.40
2019-06-01T05:51:25.141Z,22.50
2019-06-01T05:53:54.429Z,22.50
2019-06-01T05:56:23.721Z,22.50
2019-06-01T05:58:52.973Z,22.50
2019-06-01T06:01:22.774Z,22.40
2019-06-01T06:03:52.121Z,22.20
2019-06-01T06:06:22.095Z,22.20
2019-06-01T06:08:51.796Z,22.10
2019-06-01T06:11:23.008Z,22.10
2019-06-01T06:13:52.963Z,22.10
2019-06-01T06:16:22.600Z,22.10
2019-06-01T06:18:52.081Z,22.20
2019-06-01T06:21:22.396Z,22.40
2019-06-01T06:23:51.730Z,22.60
2019-06-01T06:26:22.803Z,22.80
2019-06-01T06:28:52.107Z,22.80
2019-06-01T06:31:24.107Z,22.80
2019-06-01T06:33:56.895Z,22.70
2019-06-01T06:36:25.129Z,22.50
2019-06-01T06:38:57.054Z,22.40
2019-06-01T06:41:26.417Z,22.20
2019-06-01T06:43:55.757Z,22.20
2019-06-01T06:46:26.227Z,22.40
2019-06-01T06:48:55.580Z,22.40
2019-06-01T06:51:25.543Z,22.20
2019-06-01T06:53:55.432Z,22.10
2019-06-01T06:56:26.075Z,22.10
2019-06-01T06:58:55.571Z,22.00
2019-06-01T07:01:24.938Z,22.00
2019-06-01T07:03:54.160Z,22.00
2019-06-01T07:06:23.807Z,21.90
2019-06-01T07:08:53.499Z,21.90
2019-06-01T07:11:25.470Z,21.90
2019-06-01T07:13:54.984Z,21.90
2019-06-01T07:16:25.607Z,21.90
2019-06-01T07:18:55.220Z,21.90
2019-06-01T07:21:25.721Z,21.90
2019-06-01T07:23:56.153Z,21.90
2019-06-01T07:26:29.215Z,21.90
2019-06-01T07:29:00.245Z,21.80
2019-06-01T07:31:29.803Z,21.90
2019-06-01T07:33:59.947Z,21.80
2019-06-01T07:36:29.181Z,21.80
2019-06-01T07:38:58.554Z,21.80
2019-06-01T07:41:28.814Z,21.80
2019-06-01T07:43:59.234Z,21.80
2019-06-01T07:46:28.995Z,21.80
2019-06-01T07:48:58.420Z,21.80
2019-06-01T07:51:27.824Z,21.70
2019-06-01T07:53:57.193Z,21.80
2019-06-01T07:56:26.586Z,21.80
2019-06-01T07:58:55.899Z,21.70
2019-06-01T08:01:27.167Z,21.70
2019-06-01T08:03:56.367Z,21.70
2019-06-01T08:06:26.107Z,21.80
2019-06-01T08:08:56.645Z,21.70
2019-06-01T08:11:31.093Z,21.70
2019-06-01T08:13:59.765Z,21.70
2019-06-01T08:16:29.976Z,21.70
2019-06-01T08:18:59.378Z,21.70
2019-06-01T08:21:30.122Z,21.70
2019-06-01T08:24:00.660Z,21.70
2019-06-01T08:26:30.620Z,21.70
2019-06-01T08:29:00.045Z,21.70
2019-06-01T08:31:31.798Z,21.70
2019-06-01T08:34:01.266Z,21.70
2019-06-01T08:36:31.670Z,21.70
2019-06-01T08:39:01.251Z,21.70
2019-06-01T08:41:33.611Z,21.70
2019-06-01T08:44:03.156Z,21.70
2019-06-01T08:46:33.974Z,21.70
2019-06-01T08:49:04.250Z,21.70
2019-06-01T08:51:34.298Z,21.70
2019-06-01T08:54:04.098Z,21.70
2019-06-01T08:56:34.443Z,21.70
2019-06-01T08:59:08.112Z,21.70
2019-06-01T09:01:40.404Z,21.70
2019-06-01T09:04:09.700Z,21.70
2019-06-01T09:06:40.095Z,21.60
2019-06-01T09:09:11.910Z,21.70
2019-06-01T09:11:42.892Z,21.70
2019-06-01T09:14:25.204Z,21.70
2019-06-01T09:17:09.231Z,21.70
2019-06-01T09:19:41.767Z,21.80
2019-06-01T09:22:11.679Z,21.80
2019-06-01T09:24:41.289Z,21.80
2019-06-01T09:27:11.615Z,21.90
2019-06-01T09:29:44.666Z,21.90
2019-06-01T09:32:13.410Z,21.90
2019-06-01T09:34:43.539Z,21.90
2019-06-01T09:37:13.092Z,21.90
2019-06-01T09:39:42.967Z,22.00
2019-06-01T09:42:12.515Z,21.90
2019-06-01T09:44:41.848Z,22.00
2019-06-01T09:47:11.410Z,22.00
2019-06-01T09:49:40.822Z,22.00
2019-06-01T09:52:12.510Z,22.00
2019-06-01T09:54:41.003Z,22.10
2019-06-01T09:57:10.306Z,22.00
2019-06-01T09:59:40.299Z,22.00
2019-06-01T10:02:09.831Z,22.00
2019-06-01T10:04:39.710Z,21.90
2019-06-01T10:07:09.045Z,21.90
2019-06-01T10:09:38.453Z,21.90
2019-06-01T10:12:08.690Z,21.90
2019-06-01T10:14:39.303Z,21.90
2019-06-01T10:17:08.788Z,21.90
2019-06-01T10:19:38.918Z,21.90
2019-06-01T10:22:09.429Z,21.80
2019-06-01T10:24:39.319Z,21.90
2019-06-01T10:27:08.796Z,21.80
2019-06-01T10:29:39.995Z,21.90
2019-06-01T10:32:09.040Z,21.90
2019-06-01T10:34:39.829Z,21.90
2019-06-01T10:37:09.315Z,21.90
2019-06-01T10:39:39.415Z,21.90
2019-06-01T10:42:08.825Z,21.80
2019-06-01T10:44:42.224Z,21.90
2019-06-01T10:47:09.256Z,21.90
2019-06-01T10:49:38.579Z,21.90
2019-06-01T10:52:07.924Z,21.80
2019-06-01T10:54:38.306Z,21.90
2019-06-01T10:57:07.786Z,21.90
2019-06-01T10:59:38.379Z,21.90
2019-06-01T11:02:07.865Z,21.90
2019-06-01T11:04:37.140Z,21.90
2019-06-01T11:07:06.441Z,21.90
2019-06-01T11:09:36.893Z,21.90
2019-06-01T11:12:06.768Z,21.90
2019-06-01T11:14:37.086Z,21.90
2019-06-01T11:17:12.891Z,21.90
2019-06-01T11:19:43.615Z,21.90
2019-06-01T11:22:13.113Z,21.90
2019-06-01T11:24:43.915Z,21.90
2019-06-01T11:27:13.632Z,21.90
2019-06-01T11:29:49.737Z,21.90
2019-06-01T11:32:14.077Z,21.90
2019-06-01T11:34:44.513Z,21.90
2019-06-01T11:37:15.393Z,21.90
2019-06-01T11:39:44.904Z,21.90
2019-06-01T11:42:14.191Z,21.90
2019-06-01T11:44:44.815Z,21.90
2019-06-01T11:47:14.334Z,21.90
2019-06-01T11:49:44.946Z,21.90
2019-06-01T11:52:14.417Z,21.90
2019-06-01T11:54:43.801Z,21.90
2019-06-01T11:57:15.713Z,21.90
2019-06-01T11:59:45.754Z,21.90
2019-06-01T12:02:15.134Z,21.90
2019-06-01T12:04:44.467Z,21.90
2019-06-01T12:07:18.015Z,22.00
2019-06-01T12:09:45.985Z,21.90
2019-06-01T12:12:15.409Z,21.90
2019-06-01T12:14:44.875Z,21.90
2019-06-01T12:17:14.185Z,22.00
2019-06-01T12:19:44.661Z,22.00
2019-06-01T12:22:14.075Z,22.00
2019-06-01T12:24:43.500Z,22.00
2019-06-01T12:27:13.776Z,22.00
2019-06-01T12:29:43.805Z,22.00
2019-06-01T12:32:13.189Z,22.00
2019-06-01T12:34:42.492Z,22.00
2019-06-01T12:37:11.754Z,22.00
2019-06-01T12:39:42.315Z,22.00
2019-06-01T12:42:11.708Z,22.00
2019-06-01T12:44:41.671Z,22.00
2019-06-01T12:47:11.083Z,22.00
2019-06-01T12:49:40.617Z,22.00
2019-06-01T12:52:10.348Z,22.00
2019-06-01T12:54:40.376Z,22.00
2019-06-01T12:57:09.733Z,22.10
2019-06-01T12:59:39.077Z,22.10
2019-06-01T13:02:08.578Z,22.10
2019-06-01T13:04:38.031Z,22.10
2019-06-01T13:07:07.552Z,22.10
2019-06-01T13:09:36.859Z,22.10
2019-06-01T13:12:06.189Z,22.10
2019-06-01T13:14:35.653Z,22.10
2019-06-01T13:17:07.794Z,22.10
2019-06-01T13:19:36.248Z,22.20
2019-06-01T13:22:05.679Z,22.20
2019-06-01T13:24:35.041Z,22.20
2019-06-01T13:27:04.406Z,22.20
2019-06-01T13:29:33.733Z,22.20
2019-06-01T13:32:03.190Z,22.20
2019-06-01T13:34:34.122Z,22.20
2019-06-01T13:37:03.838Z,22.20
2019-06-01T13:39:33.395Z,22.20
2019-06-01T13:42:02.717Z,22.20
2019-06-01T13:44:32.206Z,22.20
2019-06-01T13:47:01.506Z,22.30
2019-06-01T13:49:30.981Z,22.30
2019-06-01T13:52:00.457Z,22.30
2019-06-01T13:54:29.814Z,22.30
2019-06-01T13:56:59.708Z,22.30
2019-06-01T13:59:28.958Z,22.30
2019-06-01T14:01:58.554Z,22.30
2019-06-01T14:04:27.978Z,22.30
2019-06-01T14:06:57.366Z,22.30
2019-06-01T14:09:26.840Z,22.30
2019-06-01T14:11:56.315Z,22.30
2019-06-01T14:14:27.150Z,22.30
2019-06-01T14:16:56.602Z,22.40
2019-06-01T14:19:26.279Z,22.40
2019-06-01T14:21:55.940Z,22.40
2019-06-01T14:24:25.341Z,22.40
2019-06-01T14:26:56.208Z,22.40
2019-06-01T14:29:25.620Z,22.40
2019-06-01T14:31:55.518Z,22.40
2019-06-01T14:34:26.583Z,22.40
2019-06-01T14:36:56.592Z,22.40
2019-06-01T14:39:26.306Z,22.40
2019-06-01T14:41:55.703Z,22.50
2019-06-01T14:44:25.007Z,22.50
2019-06-01T14:47:03.192Z,22.50
2019-06-01T14:49:25.496Z,22.50
2019-06-01T14:51:55.816Z,22.50
2019-06-01T14:54:27.032Z,22.50
2019-06-01T14:56:57.945Z,22.50
2019-06-01T14:59:27.670Z,22.50
2019-06-01T15:01:58.399Z,22.50
2019-06-01T15:04:29.441Z,22.50
2019-06-01T15:06:59.062Z,22.50
2019-06-01T15:09:28.475Z,22.50
2019-06-01T15:11:59.278Z,22.60
2019-06-01T15:14:29.054Z,22.60
2019-06-01T15:16:58.738Z,22.60
2019-06-01T15:19:28.100Z,22.60
2019-06-01T15:21:58.390Z,22.60
2019-06-01T15:24:29.678Z,22.60
2019-06-01T15:26:59.114Z,22.60
2019-06-01T15:29:28.702Z,22.70
2019-06-01T15:31:58.127Z,22.70
2019-06-01T15:34:27.546Z,22.70
2019-06-01T15:36:57.737Z,22.70
2019-06-01T15:39:27.741Z,22.70
2019-06-01T15:41:57.172Z,22.70
2019-06-01T15:44:26.706Z,22.70
2019-06-01T15:46:57.764Z,22.70
2019-06-01T15:49:27.098Z,22.80
2019-06-01T15:51:57.733Z,22.70
2019-06-01T15:54:27.486Z,22.70
2019-06-01T15:56:56.819Z,22.80
2019-06-01T15:59:26.185Z,22.80
2019-06-01T16:01:55.457Z,22.80
2019-06-01T16:04:25.069Z,22.80
2019-06-01T16:06:57.491Z,22.80
2019-06-01T16:09:41.616Z,22.80
2019-06-01T16:11:57.840Z,22.80
2019-06-01T16:14:27.278Z,22.90
2019-06-01T16:16:57.798Z,22.90
2019-06-01T16:19:27.421Z,22.90
2019-06-01T16:21:58.236Z,23.00
2019-06-01T16:24:27.578Z,22.90
2019-06-01T16:26:56.861Z,23.00
2019-06-01T16:29:26.192Z,23.00
2019-06-01T16:31:56.663Z,23.00
2019-06-01T16:34:27.228Z,23.00
2019-06-01T16:36:56.815Z,23.00
2019-06-01T16:39:27.228Z,23.00
2019-06-01T16:41:57.691Z,23.00
2019-06-01T16:44:27.022Z,23.00
2019-06-01T16:46:57.669Z,23.00
2019-06-01T16:49:27.395Z,23.00
2019-06-01T16:51:59.120Z,23.00
2019-06-01T16:54:29.313Z,23.00
2019-06-01T16:57:00.917Z,23.00
2019-06-01T16:59:32.021Z,23.00
2019-06-01T17:02:01.571Z,23.10
2019-06-01T17:04:31.084Z,23.10
2019-06-01T17:07:00.662Z,23.00
2019-06-01T17:09:30.236Z,23.10
2019-06-01T17:12:00.584Z,23.10
2019-06-01T17:14:32.190Z,23.10
2019-06-01T17:17:01.293Z,23.10
2019-06-01T17:19:30.707Z,23.10
2019-06-01T17:22:01.350Z,23.10
2019-06-01T17:24:30.833Z,23.10
2019-06-01T17:27:00.231Z,23.20
2019-06-01T17:29:29.802Z,23.10
2019-06-01T17:32:15.910Z,23.20
2019-06-01T17:34:30.230Z,23.20
2019-06-01T17:37:00.560Z,23.20
2019-06-01T17:39:29.913Z,23.20
2019-06-01T17:42:00.295Z,23.20
2019-06-01T17:44:29.925Z,23.20
2019-06-01T17:46:59.935Z,23.20
2019-06-01T17:49:29.380Z,23.20
2019-06-01T17:51:58.792Z,23.20
2019-06-01T17:54:28.406Z,23.20
2019-06-01T17:56:57.700Z,23.20
2019-06-01T17:59:27.061Z,23.20
2019-06-01T18:01:56.698Z,23.20
2019-06-01T18:04:26.120Z,23.20
2019-06-01T18:06:55.439Z,23.20
2019-06-01T18:09:24.775Z,23.20
2019-06-01T18:11:54.140Z,23.20
2019-06-01T18:14:23.506Z,23.20
2019-06-01T18:16:52.824Z,23.20
2019-06-01T18:19:22.178Z,23.20
2019-06-01T18:21:52.750Z,23.20
2019-06-01T18:24:22.143Z,23.20
2019-06-01T18:26:51.579Z,23.20
2019-06-01T18:29:21.026Z,23.30
2019-06-01T18:31:50.519Z,23.30
2019-06-01T18:34:19.921Z,23.30
2019-06-01T18:36:49.317Z,23.30
2019-06-01T18:39:18.820Z,23.30
2019-06-01T18:41:51.564Z,23.40
2019-06-01T18:44:20.898Z,23.40
2019-06-01T18:46:52.888Z,23.40
2019-06-01T18:49:22.573Z,23.40
2019-06-01T18:51:52.039Z,23.40
2019-06-01T18:54:21.666Z,23.50
2019-06-01T18:56:51.097Z,23.40
2019-06-01T18:59:23.591Z,23.40
2019-06-01T19:01:51.638Z,23.40
2019-06-01T19:04:23.318Z,23.40
2019-06-01T19:06:52.805Z,23.40
2019-06-01T19:09:22.254Z,23.40
2019-06-01T19:11:51.683Z,23.30
2019-06-01T19:14:21.110Z,23.30
2019-06-01T19:16:50.439Z,23.30
2019-06-01T19:19:19.764Z,23.30
2019-06-01T19:21:49.152Z,23.40
2019-06-01T19:24:18.628Z,23.30
2019-06-01T19:26:49.753Z,23.30
2019-06-01T19:29:19.217Z,23.30
2019-06-01T19:31:48.677Z,23.40
2019-06-01T19:34:18.158Z,23.30
2019-06-01T19:36:50.400Z,23.30
2019-06-01T19:39:20.115Z,23.30
2019-06-01T19:41:50.515Z,23.30
2019-06-01T19:44:21.526Z,23.30
2019-06-01T19:46:51.135Z,23.30
2019-06-01T19:49:21.058Z,23.30
2019-06-01T19:51:50.556Z,23.30
2019-06-01T19:54:20.963Z,23.30
2019-06-01T19:56:53.539Z,23.30
2019-06-01T19:59:23.520Z,23.30
2019-06-01T20:01:52.890Z,23.30
2019-06-01T20:04:22.972Z,23.30
2019-06-01T20:06:52.727Z,23.30
2019-06-01T20:09:22.131Z,23.30
2019-06-01T20:12:01.346Z,23.30
2019-06-01T20:14:25.545Z,23.30
2019-06-01T20:16:54.909Z,23.20
2019-06-01T20:19:24.369Z,23.20
2019-06-01T20:21:53.833Z,23.20
2019-06-01T20:24:23.476Z,23.20
2019-06-01T20:26:53.203Z,23.20
2019-06-01T20:29:22.551Z,23.20
2019-06-01T20:31:51.890Z,23.20
2019-06-01T20:34:24.003Z,23.30
2019-06-01T20:36:53.654Z,23.20
2019-06-01T20:39:23.176Z,23.20
2019-06-01T20:41:52.616Z,23.20
2019-06-01T20:44:23.002Z,23.20
2019-06-01T20:46:52.472Z,23.20
2019-06-01T20:49:22.721Z,23.20
2019-06-01T20:51:52.136Z,23.20
2019-06-01T20:54:21.566Z,23.20
2019-06-01T20:56:50.971Z,23.20
2019-06-01T20:59:22.745Z,23.30
2019-06-01T21:01:51.606Z,23.20
2019-06-01T21:04:22.205Z,23.20
2019-06-01T21:06:53.584Z,23.20
2019-06-01T21:09:24.350Z,23.20
2019-06-01T21:11:53.790Z,23.20
2019-06-01T21:14:23.163Z,23.20
2019-06-01T21:16:52.682Z,23.20
2019-06-01T21:19:22.387Z,23.20
2019-06-01T21:21:51.895Z,23.20
2019-06-01T21:24:21.284Z,23.20
2019-06-01T21:26:50.651Z,23.20
2019-06-01T21:29:20.924Z,23.20
2019-06-01T21:31:50.232Z,23.20
2019-06-01T21:34:21.882Z,23.20
2019-06-01T21:36:50.967Z,23.20
2019-06-01T21:39:21.713Z,23.20
2019-06-01T21:41:51.247Z,23.20
2019-06-01T21:44:21.579Z,23.20
2019-06-01T21:46:57.609Z,23.20
2019-06-01T21:49:30.140Z,23.20
2019-06-01T21:52:01.144Z,23.20
2019-06-01T21:54:30.565Z,23.30
2019-06-01T21:57:00.075Z,23.30
2019-06-01T21:59:29.682Z,23.30
2019-06-01T22:01:59.026Z,23.30
2019-06-01T22:04:28.562Z,23.30
2019-06-01T22:07:03.603Z,23.20
2019-06-01T22:09:38.362Z,23.20
2019-06-01T22:12:09.167Z,23.30
2019-06-01T22:14:38.604Z,23.30
2019-06-01T22:17:08.012Z,23.30
2019-06-01T22:19:37.315Z,23.30
2019-06-01T22:22:06.666Z,23.30
2019-06-01T22:24:36.117Z,23.30
2019-06-01T22:27:05.413Z,23.20
2019-06-01T22:29:35.058Z,23.30
2019-06-01T22:32:04.610Z,23.20
2019-06-01T22:34:33.935Z,23.20
2019-06-01T22:37:03.292Z,23.20
2019-06-01T22:39:32.653Z,23.20
2019-06-01T22:42:02.205Z,23.20
2019-06-01T22:44:33.555Z,23.30
2019-06-01T22:47:03.276Z,23.20
2019-06-01T22:49:32.958Z,23.30
2019-06-01T22:52:02.583Z,23.30
2019-06-01T22:54:35.879Z,23.30
2019-06-01T22:57:05.618Z,23.30
2019-06-01T22:59:34.903Z,23.20
2019-06-01T23:02:04.817Z,23.30
2019-06-01T23:04:34.143Z,23.30
2019-06-01T23:07:03.535Z,23.30
2019-06-01T23:09:32.846Z,23.20
2019-06-01T23:12:02.182Z,23.30
2019-06-01T23:14:31.553Z,23.30
2019-06-01T23:17:00.834Z,23.30
2019-06-01T23:19:30.190Z,23.20
2019-06-01T23:21:59.629Z,23.20
2019-06-01T23:24:30.206Z,23.20
2019-06-01T23:26:59.639Z,23.20
2019-06-01T23:29:30.139Z,23.20
2019-06-01T23:31:59.617Z,23.20
2019-06-01T23:34:29.030Z,23.20
2019-06-01T23:36:58.337Z,23.20
2019-06-01T23:39:28.711Z,23.20
2019-06-01T23:41:58.259Z,23.20
2019-06-01T23:44:30.890Z,23.20
2019-06-01T23:46:58.451Z,23.20
2019-06-01T23:49:27.747Z,23.20
2019-06-01T23:51:57.103Z,23.20
2019-06-01T23:54:27.485Z,23.20
2019-06-01T23:56:57.008Z,23.20
2019-06-01T23:59:27.971Z,23.20
